createdAt,value
2022-09-10T00:02:12.488Z,5.93
2022-09-10T00:04:39.415Z,6.22
2022-09-10T00:07:06.503Z,5.85
2022-09-10T00:09:33.448Z,6.55
2022-09-10T00:12:00.563Z,4.55
2022-09-10T00:14:27.653Z,6.20
2022-09-10T00:16:54.967Z,6.07
2022-09-10T00:19:22.278Z,5.28
2022-09-10T00:21:50.757Z,5.20
2022-09-10T00:24:17.759Z,6.57
2022-09-10T00:26:45.759Z,5.68
2022-09-10T00:29:15.920Z,5.87
2022-09-10T00:31:43.558Z,6.90
2022-09-10T00:34:11.907Z,6.30
2022-09-10T00:36:44.023Z,6.22
2022-09-10T00:39:17.088Z,6.57
2022-09-10T00:41:46.320Z,5.50
2022-09-10T00:44:41.200Z,6.12
2022-09-10T00:47:23.612Z,5.75
2022-09-10T00:50:00.463Z,5.55
2022-09-10T00:52:28.667Z,6.00
2022-09-10T00:54:55.970Z,7.90
2022-09-10T00:57:24.306Z,6.25
2022-09-10T00:59:59.394Z,7.07
2022-09-10T01:02:27.060Z,6.72
2022-09-10T01:04:56.726Z,9.40
2022-09-10T01:07:25.719Z,7.53
2022-09-10T01:09:53.041Z,7.45
2022-09-10T01:12:49.331Z,8.60
2022-09-10T01:15:38.263Z,8.65
2022-09-10T01:18:35.916Z,8.25
2022-09-10T01:21:49.315Z,7.82
2022-09-10T01:24:48.479Z,7.75
2022-09-10T01:27:27.533Z,7.85
2022-09-10T01:30:03.421Z,7.37
2022-09-10T01:32:54.344Z,7.00
2022-09-10T01:35:32.330Z,7.78
2022-09-10T01:38:05.462Z,6.10
2022-09-10T01:40:33.753Z,6.62
2022-09-10T01:43:09.777Z,6.07
2022-09-10T01:46:03.301Z,6.18
2022-09-10T01:49:00.731Z,5.90
2022-09-10T01:51:57.966Z,5.78
2022-09-10T01:54:28.551Z,5.80
2022-09-10T01:57:33.467Z,7.10
2022-09-10T02:00:10.894Z,6.25
2022-09-10T02:02:37.756Z,6.47
2022-09-10T02:05:06.808Z,6.37
2022-09-10T02:07:36.242Z,7.35
2022-09-10T02:10:08.784Z,6.60
2022-09-10T02:12:36.904Z,7.93
2022-09-10T02:15:08.033Z,7.25
2022-09-10T02:17:37.842Z,8.27
2022-09-10T02:20:08.890Z,9.20
2022-09-10T02:22:36.833Z,7.68
2022-09-10T02:25:04.685Z,7.57
2022-09-10T02:27:31.667Z,7.68
2022-09-10T02:29:58.759Z,7.65
2022-09-10T02:32:25.720Z,7.37
2022-09-10T02:34:52.627Z,6.57
2022-09-10T02:37:20.456Z,6.90
2022-09-10T02:39:47.727Z,7.00
2022-09-10T02:42:17.189Z,7.10
2022-09-10T02:44:45.271Z,6.37
2022-09-10T02:47:12.834Z,5.78
2022-09-10T02:49:40.307Z,6.82
2022-09-10T02:52:07.412Z,6.18
2022-09-10T02:54:34.524Z,6.15
2022-09-10T02:57:01.365Z,7.03
2022-09-10T02:59:29.145Z,6.85
2022-09-10T03:01:56.407Z,6.57
2022-09-10T03:04:23.430Z,6.55
2022-09-10T03:06:52.093Z,6.85
2022-09-10T03:09:19.096Z,6.28
2022-09-10T03:11:46.899Z,5.57
2022-09-10T03:14:20.249Z,5.60
2022-09-10T03:16:47.813Z,5.97
2022-09-10T03:19:15.591Z,5.93
2022-09-10T03:21:42.915Z,6.75
2022-09-10T03:24:13.393Z,6.47
2022-09-10T03:26:43.555Z,5.87
2022-09-10T03:29:10.763Z,5.90
2022-09-10T03:31:37.842Z,6.35
2022-09-10T03:34:04.767Z,5.72
2022-09-10T03:36:31.762Z,5.43
2022-09-10T03:38:59.301Z,5.50
2022-09-10T03:41:28.716Z,6.40
2022-09-10T03:43:55.958Z,5.55
2022-09-10T03:46:22.998Z,6.18
2022-09-10T03:48:53.353Z,6.47
2022-09-10T03:51:23.278Z,6.00
2022-09-10T03:53:50.153Z,6.35
2022-09-10T03:56:20.122Z,5.50
2022-09-10T03:58:49.278Z,6.85
2022-09-10T04:01:17.520Z,6.32
2022-09-10T04:03:44.698Z,6.10
2022-09-10T04:06:16.331Z,6.20
2022-09-10T04:08:46.297Z,6.05
2022-09-10T04:11:14.207Z,6.40
2022-09-10T04:13:41.098Z,6.18
2022-09-10T04:16:08.016Z,5.97
2022-09-10T04:18:35.446Z,5.55
2022-09-10T04:21:02.469Z,6.30
2022-09-10T04:23:29.826Z,5.60
2022-09-10T04:25:57.191Z,5.62
2022-09-10T04:28:24.234Z,5.62
2022-09-10T04:30:51.495Z,6.07
2022-09-10T04:33:18.519Z,5.12
2022-09-10T04:35:45.707Z,6.07
2022-09-10T04:38:12.619Z,5.70
2022-09-10T04:40:39.959Z,5.87
2022-09-10T04:43:06.864Z,5.90
2022-09-10T04:45:34.778Z,6.03
2022-09-10T04:48:06.710Z,5.28
2022-09-10T04:50:34.131Z,6.07
2022-09-10T04:53:01.354Z,5.68
2022-09-10T04:55:30.419Z,5.80
2022-09-10T04:57:57.308Z,5.82
2022-09-10T05:00:25.138Z,5.00
2022-09-10T05:02:52.717Z,4.90
2022-09-10T05:05:19.603Z,5.12
2022-09-10T05:07:46.505Z,5.35
2022-09-10T05:10:13.539Z,5.25
2022-09-10T05:12:40.382Z,5.25
2022-09-10T05:15:07.942Z,5.10
2022-09-10T05:17:34.871Z,5.65
2022-09-10T05:20:03.985Z,5.25
2022-09-10T05:22:37.216Z,5.62
2022-09-10T05:25:07.547Z,5.50
2022-09-10T05:27:34.428Z,5.53
2022-09-10T05:30:02.211Z,5.22
2022-09-10T05:32:29.565Z,5.65
2022-09-10T05:34:56.434Z,4.82
2022-09-10T05:37:23.358Z,5.72
2022-09-10T05:39:50.431Z,5.45
2022-09-10T05:42:17.512Z,5.75
2022-09-10T05:44:44.387Z,5.78
2022-09-10T05:47:11.260Z,5.40
2022-09-10T05:49:38.186Z,4.87
2022-09-10T05:52:05.264Z,5.18
2022-09-10T05:54:32.117Z,4.43
2022-09-10T05:56:59.076Z,4.97
2022-09-10T05:59:25.939Z,4.82
2022-09-10T06:01:53.010Z,4.93
2022-09-10T06:04:20.083Z,4.78
2022-09-10T06:06:47.910Z,5.05
2022-09-10T06:09:15.120Z,4.78
2022-09-10T06:11:42.072Z,4.72
2022-09-10T06:14:09.125Z,4.78
2022-09-10T06:16:36.074Z,4.82
2022-09-10T06:19:03.089Z,5.15
2022-09-10T06:21:29.977Z,4.80
2022-09-10T06:23:57.056Z,4.90
2022-09-10T06:26:24.019Z,4.62
2022-09-10T06:28:50.936Z,5.62
2022-09-10T06:31:19.717Z,4.70
2022-09-10T06:33:49.053Z,4.47
2022-09-10T06:36:16.312Z,4.12
2022-09-10T06:38:45.075Z,4.45
2022-09-10T06:41:13.731Z,4.40
2022-09-10T06:43:41.787Z,5.05
2022-09-10T06:47:09.518Z,5.25
2022-09-10T06:49:06.176Z,4.78
2022-09-10T06:51:36.082Z,4.65
2022-09-10T06:54:03.432Z,4.82
2022-09-10T06:56:30.452Z,5.22
2022-09-10T06:59:01.513Z,5.65
2022-09-10T07:01:29.391Z,5.35
2022-09-10T07:03:58.291Z,6.20
2022-09-10T07:06:26.903Z,5.93
2022-09-10T07:08:56.580Z,6.80
2022-09-10T07:11:25.986Z,5.68
2022-09-10T07:13:53.924Z,5.35
2022-09-10T07:16:26.583Z,5.68
2022-09-10T07:18:56.340Z,5.50
2022-09-10T07:21:25.362Z,5.62
2022-09-10T07:23:56.550Z,4.70
2022-09-10T07:26:23.575Z,4.75
2022-09-10T07:28:50.607Z,5.05
2022-09-10T07:31:31.686Z,4.55
2022-09-10T07:33:58.852Z,5.55
2022-09-10T07:36:25.888Z,4.97
2022-09-10T07:38:55.240Z,5.32
2022-09-10T07:41:22.286Z,5.60
2022-09-10T07:43:53.698Z,5.97
2022-09-10T07:46:22.028Z,5.10
2022-09-10T07:48:53.719Z,5.30
2022-09-10T07:51:21.626Z,6.05
2022-09-10T07:53:56.383Z,5.43
2022-09-10T07:56:23.911Z,5.85
2022-09-10T07:58:51.838Z,5.30
2022-09-10T08:01:21.991Z,4.53
2022-09-10T08:03:49.440Z,4.87
2022-09-10T08:06:16.883Z,4.65
2022-09-10T08:08:43.966Z,3.97
2022-09-10T08:11:13.127Z,4.87
2022-09-10T08:13:41.841Z,3.83
2022-09-10T08:16:10.839Z,4.15
2022-09-10T08:18:37.903Z,4.62
2022-09-10T08:21:08.595Z,4.72
2022-09-10T08:23:36.683Z,3.78
2022-09-10T08:26:06.472Z,4.05
2022-09-10T08:28:34.016Z,3.67
2022-09-10T08:31:08.334Z,4.32
2022-09-10T08:33:36.539Z,3.80
2022-09-10T08:36:04.844Z,3.85
2022-09-10T08:38:34.619Z,3.55
2022-09-10T08:41:09.663Z,4.25
2022-09-10T08:43:43.913Z,2.87
2022-09-10T08:46:21.155Z,2.87
2022-09-10T08:48:55.157Z,2.72
2022-09-10T08:51:30.065Z,2.85
2022-09-10T08:54:17.632Z,2.80
2022-09-10T08:56:47.370Z,2.53
2022-09-10T08:59:33.742Z,2.65
2022-09-10T09:02:11.305Z,2.62
2022-09-10T09:04:50.757Z,2.53
2022-09-10T09:07:19.971Z,1.98
2022-09-10T09:09:51.545Z,2.40
2022-09-10T09:12:34.526Z,1.90
2022-09-10T09:15:21.163Z,2.35
2022-09-10T09:17:54.934Z,2.50
2022-09-10T09:20:24.705Z,2.20
2022-09-10T09:23:16.788Z,2.47
2022-09-10T09:26:16.267Z,2.08
2022-09-10T09:29:24.238Z,1.70
2022-09-10T09:31:57.784Z,1.65
2022-09-10T09:34:39.664Z,1.70
2022-09-10T09:37:25.027Z,1.48
2022-09-10T09:40:07.244Z,1.40
2022-09-10T09:42:42.730Z,1.83
2022-09-10T09:45:16.312Z,1.62
2022-09-10T09:47:46.285Z,1.30
2022-09-10T09:50:13.698Z,1.40
2022-09-10T09:52:43.185Z,1.80
2022-09-10T09:55:36.073Z,3.00
2022-09-10T09:58:40.352Z,2.03
2022-09-10T10:01:10.924Z,16.27
2022-09-10T10:03:52.582Z,4.37
2022-09-10T10:06:24.111Z,7.80
2022-09-10T10:09:07.296Z,4.93
2022-09-10T10:11:48.372Z,2.58
2022-09-10T10:14:21.221Z,2.58
2022-09-10T10:16:49.348Z,2.17
2022-09-10T10:19:35.849Z,1.42
2022-09-10T10:22:15.216Z,2.33
2022-09-10T10:24:43.386Z,1.73
2022-09-10T10:27:51.390Z,1.50
2022-09-10T10:30:18.335Z,3.28
2022-09-10T10:32:51.612Z,1.02
2022-09-10T10:35:53.872Z,0.95
2022-09-10T10:38:31.597Z,0.93
2022-09-10T10:41:08.258Z,2.05
2022-09-10T10:43:55.924Z,1.50
2022-09-10T10:46:40.467Z,2.08
2022-09-10T10:49:33.538Z,1.08
2022-09-10T10:52:14.095Z,2.33
2022-09-10T10:54:43.746Z,1.50
2022-09-10T10:57:35.169Z,2.33
2022-09-10T11:00:18.680Z,1.30
2022-09-10T11:03:03.675Z,1.40
2022-09-10T11:05:38.628Z,0.80
2022-09-10T11:08:12.350Z,0.90
2022-09-10T11:11:13.480Z,1.10
2022-09-10T11:13:51.197Z,2.05
2022-09-10T11:16:28.865Z,2.22
2022-09-10T11:19:31.355Z,1.90
2022-09-10T11:22:04.373Z,0.98
2022-09-10T11:25:00.342Z,1.73
2022-09-10T11:27:41.922Z,1.00
2022-09-10T11:30:17.152Z,0.82
2022-09-10T11:32:49.276Z,0.85
2022-09-10T11:35:29.303Z,1.10
2022-09-10T11:38:01.953Z,0.85
2022-09-10T11:41:06.342Z,0.68
2022-09-10T11:43:47.427Z,0.80
2022-09-10T11:46:23.461Z,1.23
2022-09-10T11:48:54.952Z,1.40
2022-09-10T11:51:34.211Z,1.33
2022-09-10T11:54:03.064Z,1.00
2022-09-10T11:56:50.988Z,1.10
2022-09-10T11:59:36.775Z,0.77
2022-09-10T12:02:18.964Z,0.80
2022-09-10T12:05:12.012Z,0.50
2022-09-10T12:07:57.834Z,0.62
2022-09-10T12:10:55.155Z,0.60
2022-09-10T12:13:22.597Z,0.80
2022-09-10T12:15:57.446Z,0.77
2022-09-10T12:18:37.810Z,0.90
2022-09-10T12:21:14.909Z,0.82
2022-09-10T12:23:44.173Z,1.10
2022-09-10T12:26:19.869Z,1.10
2022-09-10T12:28:49.714Z,0.70
2022-09-10T12:31:18.806Z,0.90
2022-09-10T12:33:45.740Z,0.82
2022-09-10T12:36:33.197Z,0.80
2022-09-10T12:39:21.647Z,0.85
2022-09-10T12:41:49.676Z,0.80
2022-09-10T12:44:35.132Z,0.82
2022-09-10T12:47:17.258Z,0.80
2022-09-10T12:50:03.405Z,0.82
2022-09-10T12:53:17.050Z,0.70
2022-09-10T12:56:00.277Z,1.50
2022-09-10T12:58:27.180Z,1.15
2022-09-10T13:00:58.219Z,0.80
2022-09-10T13:03:28.750Z,0.82
2022-09-10T13:06:01.950Z,0.82
2022-09-10T13:08:35.655Z,0.93
2022-09-10T13:11:25.121Z,0.90
2022-09-10T13:14:03.049Z,0.65
2022-09-10T13:16:29.907Z,0.80
2022-09-10T13:19:18.625Z,1.00
2022-09-10T13:21:45.497Z,1.25
2022-09-10T13:24:36.304Z,0.77
2022-09-10T13:27:22.941Z,0.70
2022-09-10T13:30:11.286Z,0.77
2022-09-10T13:32:43.911Z,0.60
2022-09-10T13:35:22.590Z,0.73
2022-09-10T13:38:05.004Z,0.68
2022-09-10T13:41:10.431Z,0.82
2022-09-10T13:43:52.714Z,0.60
2022-09-10T13:46:41.726Z,0.70
2022-09-10T13:49:30.120Z,0.70
2022-09-10T13:52:01.599Z,0.50
2022-09-10T13:54:35.121Z,0.60
2022-09-10T13:57:13.257Z,0.80
2022-09-10T13:59:42.324Z,0.82
2022-09-10T14:02:09.255Z,0.90
2022-09-10T14:04:41.953Z,0.62
2022-09-10T14:07:21.168Z,0.60
2022-09-10T14:09:56.831Z,0.60
2022-09-10T14:12:26.987Z,0.70
2022-09-10T14:14:59.169Z,0.70
2022-09-10T14:17:43.160Z,0.70
2022-09-10T14:20:29.547Z,0.55
2022-09-10T14:23:05.848Z,0.85
2022-09-10T14:25:35.805Z,0.70
2022-09-10T14:28:15.843Z,0.65
2022-09-10T14:30:44.691Z,0.65
2022-09-10T14:33:34.980Z,0.60
2022-09-10T14:36:34.424Z,0.50
2022-09-10T14:39:17.989Z,0.60
2022-09-10T14:41:46.072Z,0.70
2022-09-10T14:44:23.952Z,0.60
2022-09-10T14:46:52.504Z,0.80
2022-09-10T14:49:31.745Z,0.70
2022-09-10T14:51:59.946Z,0.60
2022-09-10T14:54:31.034Z,0.90
2022-09-10T14:57:01.504Z,0.80
2022-09-10T14:59:38.626Z,0.70
2022-09-10T15:02:25.506Z,0.73
2022-09-10T15:04:52.804Z,1.10
2022-09-10T15:07:20.030Z,0.90
2022-09-10T15:09:47.029Z,0.93
2022-09-10T15:12:20.109Z,0.77
2022-09-10T15:14:47.003Z,0.70
2022-09-10T15:17:15.388Z,0.70
2022-09-10T15:19:42.264Z,0.80
2022-09-10T15:22:23.428Z,1.00
2022-09-10T15:25:10.037Z,0.82
2022-09-10T15:27:37.715Z,0.60
2022-09-10T15:30:05.453Z,0.80
2022-09-10T15:32:32.443Z,0.85
2022-09-10T15:34:59.431Z,0.82
2022-09-10T15:37:27.136Z,1.40
2022-09-10T15:39:54.723Z,1.00
2022-09-10T15:42:21.733Z,1.30
2022-09-10T15:44:48.677Z,1.37
2022-09-10T15:47:15.623Z,1.00
2022-09-10T15:49:42.525Z,0.93
2022-09-10T15:52:10.743Z,0.88
2022-09-10T15:54:37.752Z,0.80
2022-09-10T15:57:04.766Z,0.70
2022-09-10T15:59:31.649Z,0.80
2022-09-10T16:01:58.599Z,0.75
2022-09-10T16:04:25.694Z,0.70
2022-09-10T16:06:52.659Z,0.80
2022-09-10T16:09:19.555Z,0.68
2022-09-10T16:11:46.680Z,0.88
2022-09-10T16:14:16.799Z,0.88
2022-09-10T16:16:43.691Z,1.10
2022-09-10T16:19:12.941Z,1.20
2022-09-10T16:21:39.873Z,0.90
2022-09-10T16:24:07.504Z,1.58
2022-09-10T16:26:37.697Z,1.00
2022-09-10T16:29:14.083Z,1.17
2022-09-10T16:31:41.937Z,1.40
2022-09-10T16:34:12.555Z,1.33
2022-09-10T16:36:39.912Z,1.33
2022-09-10T16:39:12.479Z,1.30
2022-09-10T16:41:40.978Z,1.52
2022-09-10T16:44:08.995Z,1.52
2022-09-10T16:46:35.929Z,1.45
2022-09-10T16:49:02.967Z,1.10
2022-09-10T16:51:29.906Z,1.27
2022-09-10T16:54:02.444Z,1.10
2022-09-10T16:56:59.320Z,1.48
2022-09-10T16:59:26.271Z,1.17
2022-09-10T17:01:53.965Z,0.93
2022-09-10T17:04:27.794Z,1.42
2022-09-10T17:06:56.414Z,0.90
2022-09-10T17:09:24.981Z,1.40
2022-09-10T17:11:53.349Z,1.12
2022-09-10T17:14:20.318Z,1.17
2022-09-10T17:16:48.478Z,1.08
2022-09-10T17:19:18.529Z,0.88
2022-09-10T17:21:51.029Z,1.48
2022-09-10T17:24:20.914Z,0.88
2022-09-10T17:26:47.918Z,0.80
2022-09-10T17:29:16.795Z,1.10
2022-09-10T17:31:46.638Z,0.90
2022-09-10T17:34:15.478Z,1.00
2022-09-10T17:36:47.064Z,1.08
2022-09-10T17:39:14.982Z,0.90
2022-09-10T17:41:43.055Z,1.17
2022-09-10T17:44:11.339Z,2.10
2022-09-10T17:46:38.756Z,1.45
2022-09-10T17:49:05.750Z,1.60
2022-09-10T17:51:34.552Z,1.50
2022-09-10T17:54:04.740Z,1.30
2022-09-10T17:56:32.088Z,1.10
2022-09-10T17:59:01.872Z,1.20
2022-09-10T18:01:32.574Z,0.90
2022-09-10T18:04:00.151Z,1.00
2022-09-10T18:06:29.223Z,1.00
2022-09-10T18:09:03.597Z,0.90
2022-09-10T18:11:32.798Z,0.90
2022-09-10T18:14:00.301Z,0.95
2022-09-10T18:16:30.055Z,0.82
2022-09-10T18:19:03.100Z,0.77
2022-09-10T18:21:32.731Z,0.70
2022-09-10T18:24:05.386Z,0.90
2022-09-10T18:26:38.332Z,0.95
2022-09-10T18:29:14.328Z,1.10
2022-09-10T18:31:44.054Z,0.90
2022-09-10T18:34:20.811Z,0.82
2022-09-10T18:36:53.543Z,1.20
2022-09-10T18:39:21.420Z,1.58
2022-09-10T18:41:48.511Z,1.20
2022-09-10T18:44:27.571Z,1.42
2022-09-10T18:46:54.681Z,1.30
2022-09-10T18:49:24.395Z,1.30
2022-09-10T18:51:52.727Z,1.40
2022-09-10T18:54:21.033Z,1.40
2022-09-10T18:56:49.299Z,1.30
2022-09-10T18:59:20.897Z,1.20
2022-09-10T19:01:48.970Z,1.25
2022-09-10T19:04:22.001Z,1.15
2022-09-10T19:06:49.968Z,1.30
2022-09-10T19:09:22.932Z,1.35
2022-09-10T19:11:51.372Z,1.33
2022-09-10T19:14:32.321Z,1.17
2022-09-10T19:17:00.539Z,1.80
2022-09-10T19:19:30.508Z,1.98
2022-09-10T19:22:06.279Z,2.37
2022-09-10T19:27:21.905Z,1.40
2022-09-10T19:29:49.950Z,1.60
2022-09-10T19:32:17.364Z,1.37
2022-09-10T19:34:44.705Z,1.58
2022-09-10T19:37:11.679Z,1.60
2022-09-10T19:39:38.634Z,1.90
2022-09-10T19:42:06.814Z,1.77
2022-09-10T19:44:34.103Z,1.60
2022-09-10T19:47:04.103Z,2.10
2022-09-10T19:49:31.373Z,2.25
2022-09-10T19:51:58.242Z,2.60
2022-09-10T19:54:25.800Z,2.53
2022-09-10T19:56:52.783Z,2.95
2022-09-10T19:59:19.687Z,2.15
2022-09-10T20:01:46.942Z,3.00
2022-09-10T20:04:14.413Z,2.92
2022-09-10T20:06:42.856Z,3.12
2022-09-10T20:09:10.305Z,2.70
2022-09-10T20:11:37.965Z,3.30
2022-09-10T20:14:12.979Z,2.92
2022-09-10T20:16:42.947Z,3.60
2022-09-10T20:19:11.774Z,4.68
2022-09-10T20:21:38.726Z,4.55
2022-09-10T20:24:08.925Z,5.60
2022-09-10T20:26:44.086Z,4.50
2022-09-10T20:29:23.123Z,4.78
2022-09-10T20:31:50.178Z,3.67
2022-09-10T20:34:20.254Z,4.90
2022-09-10T20:36:51.237Z,4.85
2022-09-10T20:39:21.236Z,5.25
2022-09-10T20:41:48.324Z,5.25
2022-09-10T20:44:17.399Z,5.10
2022-09-10T20:46:44.694Z,4.80
2022-09-10T20:49:13.013Z,6.18
2022-09-10T20:51:41.133Z,4.80
2022-09-10T20:54:11.958Z,5.70
2022-09-10T20:56:39.275Z,6.10
2022-09-10T20:59:06.178Z,4.85
2022-09-10T21:01:33.243Z,5.05
2022-09-10T21:04:01.413Z,4.97
2022-09-10T21:06:31.301Z,4.85
2022-09-10T21:08:59.187Z,4.78
2022-09-10T21:11:28.854Z,4.68
2022-09-10T21:13:58.292Z,3.80
2022-09-10T21:16:28.209Z,4.20
2022-09-10T21:18:57.546Z,3.90
2022-09-10T21:21:26.978Z,3.22
2022-09-10T21:24:05.871Z,3.03
2022-09-10T21:26:35.426Z,3.15
2022-09-10T21:29:05.314Z,3.65
2022-09-10T21:31:32.626Z,3.00
2022-09-10T21:34:03.400Z,3.70
2022-09-10T21:36:31.525Z,3.25
2022-09-10T21:39:00.835Z,3.83
2022-09-10T21:41:33.225Z,4.12
2022-09-10T21:44:01.683Z,4.53
2022-09-10T21:46:29.688Z,3.78
2022-09-10T21:48:57.025Z,3.67
2022-09-10T21:51:24.397Z,4.20
2022-09-10T21:53:55.803Z,4.43
2022-09-10T21:56:24.914Z,3.17
2022-09-10T21:58:53.728Z,3.95
2022-09-10T22:01:23.546Z,3.78
2022-09-10T22:03:54.803Z,4.20
2022-09-10T22:06:24.405Z,3.92
2022-09-10T22:08:59.664Z,3.62
2022-09-10T22:11:38.104Z,3.87
2022-09-10T22:14:07.468Z,4.30
2022-09-10T22:16:35.930Z,4.47
2022-09-10T22:19:06.405Z,4.20
2022-09-10T22:21:34.128Z,4.20
2022-09-10T22:24:01.067Z,4.32
2022-09-10T22:26:28.435Z,5.03
2022-09-10T22:28:58.191Z,4.40
2022-09-10T22:31:28.545Z,5.03
2022-09-10T22:33:57.972Z,4.45
2022-09-10T22:36:31.642Z,4.62
2022-09-10T22:39:05.069Z,4.10
2022-09-10T22:41:34.417Z,4.12
2022-09-10T22:44:02.272Z,4.28
2022-09-10T22:46:29.888Z,4.28
2022-09-10T22:48:57.263Z,5.12
2022-09-10T22:51:27.709Z,5.15
2022-09-10T22:53:55.786Z,6.18
2022-09-10T22:56:26.227Z,4.95
2022-09-10T22:58:55.632Z,5.00
2022-09-10T23:01:25.849Z,5.68
2022-09-10T23:03:53.068Z,5.28
2022-09-10T23:06:24.511Z,4.87
2022-09-10T23:08:53.538Z,4.82
2022-09-10T23:11:22.955Z,4.90
2022-09-10T23:14:13.080Z,4.82
2022-09-10T23:16:42.434Z,5.45
2022-09-10T23:19:15.382Z,4.60
2022-09-10T23:21:45.659Z,4.55
2022-09-10T23:24:15.842Z,4.40
2022-09-10T23:26:44.104Z,5.05
2022-09-10T23:29:11.656Z,4.60
2022-09-10T23:31:39.765Z,4.62
2022-09-10T23:34:17.797Z,4.35
2022-09-10T23:36:46.859Z,4.10
2022-09-10T23:39:17.023Z,3.12
2022-09-10T23:41:44.129Z,3.80
2022-09-10T23:44:11.034Z,4.18
2022-09-10T23:46:38.184Z,4.20
2022-09-10T23:49:05.947Z,4.40
2022-09-10T23:51:33.361Z,4.35
2022-09-10T23:54:00.359Z,3.33
2022-09-10T23:56:28.710Z,3.65
2022-09-10T23:58:56.718Z,3.72
